Time;durP1;ratioP1;P1;durP2;ratioP2;P2;SDS_P1;SDS_P2;PMS_P1;PMS_P2;Temp;Humidity;BMP_temperature;BMP_pressure;BME280_temperature;BME280_humidity;BME280_pressure;Samples;Min_cycle;Max_cycle;Signal;HPM_P1;HPM_P2
2022/12/09 00:01:18;;;;;;;;;48.00;40.25;;;;;5.40;70.79;100382.56;5053092;28;45503;-87
2022/12/09 00:03:44;;;;;;;;;53.25;40.75;;;;;5.49;70.86;100404.44;5034227;28;45720;-89
2022/12/09 00:06:23;;;;;;;;;63.00;49.00;;;;;5.42;70.80;100380.84;5034998;28;44635;-88
2022/12/09 00:08:49;;;;;;;;;74.00;55.25;;;;;5.57;71.08;100406.25;5033373;28;45595;-90
2022/12/09 00:11:16;;;;;;;;;61.75;48.75;;;;;5.48;70.98;100391.34;5055762;28;48149;-90
2022/12/09 00:13:42;;;;;;;;;77.00;58.75;;;;;5.56;71.19;100401.88;5049496;28;45477;-90
2022/12/09 00:16:10;;;;;;;;;57.75;44.75;;;;;5.44;71.29;100385.22;5035742;28;45381;-89
2022/12/09 00:18:39;;;;;;;;;53.00;42.50;;;;;5.58;70.91;100398.44;5053009;28;45658;-91
2022/12/09 00:21:17;;;;;;;;;53.50;41.00;;;;;5.49;71.15;100378.31;5047789;28;46995;-90
2022/12/09 00:23:43;;;;;;;;;57.75;41.50;;;;;5.58;71.04;100398.44;5028348;28;45654;-91
2022/12/09 00:26:08;;;;;;;;;53.50;43.00;;;;;5.50;70.97;100376.59;5035782;28;45506;-89
2022/12/09 00:28:34;;;;;;;;;53.75;41.25;;;;;5.50;70.72;100384.41;5064683;28;45438;-89
2022/12/09 00:31:01;;;;;;;;;52.25;40.75;;;;;5.56;71.23;100394.06;5046493;28;46963;-89
2022/12/09 00:33:28;;;;;;;;;46.25;41.00;;;;;5.34;70.67;100362.50;5049622;28;45399;-90
2022/12/09 00:35:53;;;;;;;;;53.25;43.25;;;;;5.41;71.04;100368.66;5029578;28;45656;-90
2022/12/09 00:38:19;;;;;;;;;51.25;40.75;;;;;5.47;71.09;100371.34;5024259;28;46561;-88
2022/12/09 00:40:44;;;;;;;;;49.50;40.75;;;;;5.51;70.92;100388.81;5037934;28;46265;-88
2022/12/09 00:43:10;;;;;;;;;57.00;40.75;;;;;5.49;71.23;100386.16;5028145;28;45273;-90
2022/12/09 00:45:35;;;;;;;;;54.75;41.75;;;;;5.36;71.28;100357.31;5036990;28;45510;-88
2022/12/09 00:48:00;;;;;;;;;36.50;29.75;;;;;5.37;70.87;100364.25;5034628;28;45435;-90
2022/12/09 00:50:26;;;;;;;;;40.50;36.75;;;;;5.33;70.89;100357.28;5043701;28;47038;-88
2022/12/09 00:52:51;;;;;;;;;49.00;42.25;;;;;5.44;71.26;100385.22;5031159;28;45467;-89
2022/12/09 00:55:17;;;;;;;;;46.00;36.25;;;;;5.23;70.97;100343.22;5038432;28;45517;-90
2022/12/09 00:57:42;;;;;;;;;42.75;37.00;;;;;5.43;71.04;100372.19;5039172;28;45349;-89
2022/12/09 01:00:08;;;;;;;;;45.00;40.00;;;;;5.29;70.90;100352.03;5059901;28;48307;-89
2022/12/09 01:02:35;;;;;;;;;44.50;39.25;;;;;5.43;71.24;100370.44;5058371;28;45349;-89
2022/12/09 01:05:00;;;;;;;;;47.25;39.00;;;;;5.43;71.27;100367.81;5025609;28;45357;-89
2022/12/09 01:07:26;;;;;;;;;48.00;37.75;;;;;5.33;70.80;100349.44;5038451;28;45289;-89
2022/12/09 01:09:51;;;;;;;;;49.00;39.50;;;;;5.28;70.72;100339.81;5029605;28;47016;-88
2022/12/09 01:12:17;;;;;;;;;53.50;39.75;;;;;5.40;70.51;100362.59;5024423;28;45353;-86
2022/12/09 01:14:42;;;;;;;;;50.50;40.00;;;;;5.41;71.01;100363.44;5044126;28;45556;-85
2022/12/09 01:17:07;;;;;;;;;45.25;39.50;;;;;5.29;70.96;100344.19;5038714;28;45307;-88
2022/12/09 01:19:33;;;;;;;;;41.75;36.50;;;;;5.41;70.78;100366.06;5042598;28;47997;-87
2022/12/09 01:21:58;;;;;;;;;45.00;38.00;;;;;5.41;70.72;100366.06;5030907;28;45563;-88
2022/12/09 01:24:24;;;;;;;;;44.75;33.00;;;;;5.30;70.90;100347.66;5044436;28;45352;-88
2022/12/09 01:26:49;;;;;;;;;37.50;33.50;;;;;5.40;70.72;100365.19;5040547;28;45477;-88
2022/12/09 01:29:15;;;;;;;;;42.50;37.00;;;;;5.38;70.74;100360.81;5034626;28;46959;-88
2022/12/09 01:31:40;;;;;;;;;49.75;38.25;;;;;5.28;70.65;100352.00;5031193;28;45524;-87
2022/12/09 01:34:05;;;;;;;;;37.75;32.00;;;;;5.23;70.84;100345.84;5033564;28;45459;-87
2022/12/09 01:36:31;;;;;;;;;39.50;33.50;;;;;5.24;70.74;100347.59;5035109;28;45602;-87
2022/12/09 01:38:58;;;;;;;;;37.00;34.25;;;;;5.30;70.68;100363.31;5030152;28;47219;-86
2022/12/09 01:41:24;;;;;;;;;42.75;36.25;;;;;5.19;70.67;100339.72;5024576;28;45906;-86
2022/12/09 01:44:14;;;;;;;;;47.75;38.00;;;;;5.29;70.62;100362.47;5024281;28;45344;-84
2022/12/09 01:46:40;;;;;;;;;44.50;37.50;;;;;5.20;70.73;100351.91;5023885;28;45684;-84
2022/12/09 01:49:08;;;;;;;;;42.25;36.50;;;;;5.28;70.64;100368.50;5037782;28;48149;-83
2022/12/09 01:51:34;;;;;;;;;31.75;27.00;;;;;5.17;70.97;100343.16;5046841;28;45343;-84
2022/12/09 01:54:00;;;;;;;;;44.50;32.50;;;;;5.04;70.58;100335.19;5050194;28;45261;-85
2022/12/09 01:56:30;;;;;;;;;50.25;41.75;;;;;5.13;70.41;100352.66;5061794;28;45233;-85
2022/12/09 01:58:59;;;;;;;;;37.50;33.75;;;;;5.12;70.83;100352.66;5062015;28;45372;-85
2022/12/09 02:01:24;;;;;;;;;41.00;34.75;;;;;5.20;70.58;100372.78;5054475;28;45199;-85
2022/12/09 02:03:50;;;;;;;;;48.00;33.50;;;;;5.20;70.19;100369.28;5025407;28;45243;-86
2022/12/09 02:06:16;;;;;;;;;40.25;36.50;;;;;5.20;70.69;100364.06;5037818;28;45299;-85
2022/12/09 02:08:42;;;;;;;;;45.50;37.00;;;;;5.07;70.72;100342.16;5039026;28;47942;-84
2022/12/09 02:11:36;;;;;;;;;31.75;30.75;;;;;5.19;70.73;100359.72;5037925;28;45212;-85
2022/12/09 02:14:16;;;;;;;;;16.00;9.50;;;;;5.18;70.81;100356.22;5045211;28;45254;-85
2022/12/09 02:17:05;;;;;;;;;43.25;38.00;;;;;5.09;70.26;100346.56;5033512;28;45499;-85
2022/12/09 02:19:48;;;;;;;;;41.00;35.00;;;;;5.17;70.33;100357.09;5053526;28;45472;-86
2022/12/09 02:22:19;;;;;;;;;43.50;36.75;;;;;5.16;70.55;100350.13;5037751;28;46163;-86
2022/12/09 02:24:58;;;;;;;;;50.00;39.50;;;;;5.06;70.71;100341.31;5024763;28;45364;-85
2022/12/09 02:27:36;;;;;;;;;46.50;37.25;;;;;5.14;70.50;100351.84;5037915;28;45703;-85
2022/12/09 02:30:04;;;;;;;;;40.00;37.00;;;;;5.12;70.48;100348.31;5055221;28;45723;-85
2022/12/09 02:32:30;;;;;;;;;41.25;34.25;;;;;5.09;70.42;100340.47;5032267;28;45425;-86
2022/12/09 02:35:18;;;;;;;;;40.25;33.25;;;;;5.08;70.59;100343.94;5043844;28;45331;-85
2022/12/09 02:37:50;;;;;;;;;40.75;33.25;;;;;4.94;70.79;100327.22;5029342;28;45984;-85
2022/12/09 02:40:28;;;;;;;;;40.50;34.50;;;;;5.06;70.30;100345.66;5043217;28;48082;-86
2022/12/09 02:42:54;;;;;;;;;25.25;22.50;;;;;4.99;70.70;100336.84;5043584;28;45217;-86
2022/12/09 02:45:23;;;;;;;;;37.75;29.00;;;;;5.02;70.60;100343.84;5050226;28;45290;-85
2022/12/09 02:47:51;;;;;;;;;47.50;38.00;;;;;4.88;70.43;100317.59;5027037;28;45330;-85
2022/12/09 02:50:23;;;;;;;;;39.75;33.25;;;;;4.89;70.41;100328.91;5031790;28;46915;-86
2022/12/09 02:52:51;;;;;;;;;36.50;32.75;;;;;4.83;70.28;100332.31;5025742;28;45311;-86
2022/12/09 02:55:19;;;;;;;;;42.25;33.25;;;;;4.72;70.36;100316.53;5032781;28;45332;-85
2022/12/09 02:57:49;;;;;;;;;38.00;31.75;;;;;4.74;70.22;100333.06;5044149;28;45194;-85
2022/12/09 03:00:15;;;;;;;;;44.50;30.75;;;;;4.71;70.54;100337.38;5036325;28;45492;-86
2022/12/09 03:02:48;;;;;;;;;42.00;35.25;;;;;4.57;70.74;100321.53;5029976;28;45277;-86
2022/12/09 03:05:26;;;;;;;;;38.75;30.50;;;;;4.68;70.69;100340.81;5045093;28;45447;-86
2022/12/09 03:08:12;;;;;;;;;31.25;27.75;;;;;4.60;70.71;100343.31;5039348;28;45583;-86
2022/12/09 03:10:56;;;;;;;;;40.00;31.25;;;;;4.56;70.77;100346.72;5047330;28;45435;-86
2022/12/09 03:13:43;;;;;;;;;32.75;28.25;;;;;4.52;70.78;100333.66;5036856;28;45899;-86
2022/12/09 03:16:27;;;;;;;;;34.00;27.25;;;;;4.46;70.91;100331.81;5031063;28;45297;-87
2022/12/09 03:19:17;;;;;;;;;30.00;24.50;;;;;4.41;71.26;100330.84;5057022;28;45382;-85
2022/12/09 03:21:47;;;;;;;;;33.00;30.25;;;;;4.28;71.25;100306.38;5056388;28;45395;-85
2022/12/09 03:24:16;;;;;;;;;32.75;29.00;;;;;4.40;71.47;100339.53;5020405;28;45737;-85
2022/12/09 03:26:43;;;;;;;;;28.00;25.25;;;;;4.31;70.99;100324.66;5050688;28;45194;-86
2022/12/09 03:29:16;;;;;;;;;30.75;25.75;;;;;4.30;71.40;100314.19;5064539;28;45232;-86
2022/12/09 03:31:42;;;;;;;;;25.75;24.00;;;;;4.36;71.17;100329.94;5061662;28;45439;-85
2022/12/09 03:34:12;;;;;;;;;30.50;25.25;;;;;4.34;71.66;100327.31;5026172;28;45274;-86
2022/12/09 03:36:40;;;;;;;;;31.50;23.75;;;;;4.32;71.47;100315.09;5042586;28;45466;-86
2022/12/09 03:39:11;;;;;;;;;29.25;26.00;;;;;4.22;71.36;100293.22;5027449;28;45550;-86
2022/12/09 03:41:43;;;;;;;;;24.50;23.00;;;;;4.30;71.50;100299.44;5044745;28;45365;-85
2022/12/09 03:44:38;;;;;;;;;35.25;28.50;;;;;4.37;71.14;100314.31;5049376;28;45391;-86
2022/12/09 03:47:05;;;;;;;;;35.25;26.25;;;;;4.33;71.04;100309.94;5008796;28;45569;-86
2022/12/09 03:49:31;;;;;;;;;32.25;30.75;;;;;4.32;71.14;100312.50;5045942;28;45348;-86
2022/12/09 03:52:16;;;;;;;;;27.00;24.50;;;;;4.35;71.46;100317.75;5035669;28;47490;-85
2022/12/09 03:54:44;;;;;;;;;31.00;24.25;;;;;4.37;71.25;100316.03;5048458;28;45332;-86
2022/12/09 03:57:13;;;;;;;;;30.00;27.25;;;;;4.36;71.20;100314.31;5034171;28;45266;-86
2022/12/09 03:59:41;;;;;;;;;28.50;23.50;;;;;4.38;71.00;100310.88;5027005;28;46232;-85
2022/12/09 04:02:06;;;;;;;;;15.25;13.75;;;;;4.41;71.16;100310.00;5042997;28;45424;-86
2022/12/09 04:04:39;;;;;;;;;33.00;26.00;;;;;4.38;71.08;100304.75;5024620;28;45315;-86
2022/12/09 04:07:05;;;;;;;;;32.50;23.75;;;;;4.41;71.11;100294.38;5042981;28;45426;-86
2022/12/09 04:09:30;;;;;;;;;23.75;20.50;;;;;4.38;71.08;100313.47;5038249;28;45555;-86
2022/12/09 04:11:56;;;;;;;;;29.00;27.75;;;;;4.29;70.77;100302.91;5023928;28;47932;-85
2022/12/09 04:14:21;;;;;;;;;24.00;17.50;;;;;4.27;70.81;100298.53;5042595;28;45401;-86
2022/12/09 04:16:47;;;;;;;;;24.25;23.00;;;;;4.23;70.77;100287.19;5057218;28;45303;-86
2022/12/09 04:19:12;;;;;;;;;29.25;24.75;;;;;4.20;70.81;100294.97;5047146;28;45336;-86
2022/12/09 04:21:38;;;;;;;;;24.50;22.25;;;;;4.16;70.63;100288.81;5051538;28;45478;-87
2022/12/09 04:24:03;;;;;;;;;29.75;25.00;;;;;4.18;70.80;100294.94;5044083;28;45376;-86
2022/12/09 04:26:29;;;;;;;;;28.50;25.25;;;;;4.18;71.08;100297.53;5066712;28;45236;-86
2022/12/09 04:28:54;;;;;;;;;26.25;23.25;;;;;4.05;70.84;100277.38;5041566;28;45472;-86
2022/12/09 04:31:20;;;;;;;;;23.75;20.00;;;;;4.17;70.76;100287.97;5037436;28;48243;-87
2022/12/09 04:33:46;;;;;;;;;25.75;21.00;;;;;4.20;70.85;100292.34;5033997;28;45346;-87
2022/12/09 04:36:15;;;;;;;;;26.00;22.25;;;;;4.19;70.68;100293.19;5034003;28;45287;-86
2022/12/09 04:38:41;;;;;;;;;25.75;20.50;;;;;4.12;70.83;100288.75;5040382;28;45417;-86
2022/12/09 04:41:07;;;;;;;;;22.25;21.00;;;;;4.14;70.72;100300.97;5024132;28;47312;-86
2022/12/09 04:43:32;;;;;;;;;28.00;19.00;;;;;3.98;70.95;100280.72;5061964;28;45526;-86
2022/12/09 04:46:04;;;;;;;;;28.75;23.75;;;;;3.98;70.46;100279.00;5034637;28;45773;-87
2022/12/09 04:48:30;;;;;;;;;27.25;22.50;;;;;4.06;70.71;100299.06;5019434;28;45367;-87
2022/12/09 04:50:56;;;;;;;;;29.25;25.00;;;;;4.02;70.58;100292.09;5031158;28;46692;-86
2022/12/09 04:53:21;;;;;;;;;28.00;22.50;;;;;4.06;70.54;100299.06;5045910;28;45443;-85
2022/12/09 04:55:47;;;;;;;;;27.25;22.50;;;;;3.90;70.29;100283.22;5031344;28;45301;-86
2022/12/09 04:58:12;;;;;;;;;31.25;20.75;;;;;4.04;70.92;100306.00;5062694;28;45273;-86
2022/12/09 05:00:38;;;;;;;;;32.50;27.00;;;;;3.98;70.60;100298.94;5043158;28;46812;-87
2022/12/09 05:03:03;;;;;;;;;33.25;28.00;;;;;3.93;70.80;100288.47;5043964;28;45324;-86
2022/12/09 05:05:29;;;;;;;;;31.75;29.00;;;;;3.97;70.92;100300.69;5057042;28;45178;-85
2022/12/09 05:07:55;;;;;;;;;27.25;22.25;;;;;3.90;70.56;100291.03;5058714;28;45213;-86
2022/12/09 05:10:20;;;;;;;;;28.75;23.75;;;;;3.89;70.50;100288.41;5046994;28;45265;-86
2022/12/09 05:12:45;;;;;;;;;23.75;22.75;;;;;3.85;70.67;100294.41;5031655;28;45176;-86
2022/12/09 05:15:11;;;;;;;;;18.75;18.75;;;;;3.63;70.13;100264.53;5033173;28;45430;-85
2022/12/09 05:17:36;;;;;;;;;17.75;15.25;;;;;3.70;70.29;100287.22;5056984;28;45411;-86
2022/12/09 05:20:02;;;;;;;;;24.00;21.00;;;;;3.67;69.98;100301.06;5037544;28;48410;-86
2022/12/09 05:22:27;;;;;;;;;25.25;22.00;;;;;3.69;70.04;100299.38;5031312;28;45256;-86
2022/12/09 05:24:53;;;;;;;;;19.25;17.75;;;;;3.65;69.71;100304.50;5050682;28;45237;-85
2022/12/09 05:27:18;;;;;;;;;19.75;17.50;;;;;3.48;69.84;100284.25;5030229;28;45392;-86
2022/12/09 05:29:43;;;;;;;;;27.00;21.25;;;;;3.58;70.22;100300.88;5032672;28;47479;-86
2022/12/09 05:32:09;;;;;;;;;23.25;19.00;;;;;3.52;69.62;100295.59;5038072;28;46307;-86
2022/12/09 05:34:34;;;;;;;;;22.25;19.25;;;;;3.52;69.51;100303.41;5042257;28;45351;-86
2022/12/09 05:37:00;;;;;;;;;25.00;21.50;;;;;3.48;70.11;100305.06;5058688;28;45370;-87
2022/12/09 05:39:25;;;;;;;;;26.25;20.25;;;;;3.35;69.69;100297.03;5055713;28;45827;-86
2022/12/09 05:41:51;;;;;;;;;23.75;19.00;;;;;3.43;69.81;100300.66;5030415;28;45455;-87
2022/12/09 05:44:16;;;;;;;;;27.50;19.00;;;;;3.34;70.32;100296.13;5034567;28;45475;-87
2022/12/09 05:46:41;;;;;;;;;29.25;23.75;;;;;3.38;69.83;100299.69;5050034;28;45337;-86
2022/12/09 05:49:07;;;;;;;;;26.25;21.75;;;;;3.42;69.84;100309.28;5065514;28;46319;-86
2022/12/09 05:51:32;;;;;;;;;23.50;19.75;;;;;3.38;70.07;100307.47;5037957;28;45379;-87
2022/12/09 05:54:04;;;;;;;;;17.25;16.50;;;;;3.34;69.59;100297.84;5023876;28;45433;-86
2022/12/09 05:56:30;;;;;;;;;30.25;24.00;;;;;3.27;69.92;100296.88;5029982;28;45579;-85
2022/12/09 05:58:55;;;;;;;;;26.75;21.75;;;;;3.26;70.11;100295.09;5044114;28;48130;-85
2022/12/09 06:01:22;;;;;;;;;20.00;18.75;;;;;3.29;69.53;100311.69;5023561;28;44853;-86
2022/12/09 06:03:50;;;;;;;;;20.00;19.25;;;;;3.22;70.49;100306.31;5023241;28;45435;-86
2022/12/09 06:06:17;;;;;;;;;26.50;25.00;;;;;3.16;70.08;100308.81;5032373;28;45805;-85
2022/12/09 06:08:45;;;;;;;;;32.25;26.25;;;;;3.21;70.04;100322.78;5048414;28;45364;-87
2022/12/09 06:11:12;;;;;;;;;27.00;24.50;;;;;3.16;70.14;100322.69;5027995;28;45390;-87
2022/12/09 06:13:38;;;;;;;;;26.00;18.25;;;;;3.17;70.05;100321.81;5028995;28;45360;-87
2022/12/09 06:16:05;;;;;;;;;23.00;19.75;;;;;3.26;70.31;100347.13;5015553;28;45590;-86
2022/12/09 06:18:31;;;;;;;;;28.50;23.00;;;;;3.16;69.93;100325.28;5028701;28;48287;-87
2022/12/09 06:20:56;;;;;;;;;29.00;22.50;;;;;3.12;69.70;100326.06;5046664;28;45186;-86
2022/12/09 06:23:22;;;;;;;;;28.50;26.75;;;;;3.18;70.28;100338.31;5032482;28;44806;-86
2022/12/09 06:25:47;;;;;;;;;28.75;24.25;;;;;3.23;70.27;100336.69;5023211;28;45276;-85
2022/12/09 06:28:13;;;;;;;;;27.00;23.25;;;;;3.25;70.26;100342.78;5053499;28;46352;-86
2022/12/09 06:30:39;;;;;;;;;25.00;22.75;;;;;3.23;70.19;100350.56;5042245;28;45508;-86
2022/12/09 06:33:04;;;;;;;;;27.25;25.75;;;;;3.24;69.94;100354.06;5046346;28;45558;-86
2022/12/09 06:35:30;;;;;;;;;26.25;21.75;;;;;3.21;69.83;100351.41;5046076;28;45265;-86
2022/12/09 06:37:55;;;;;;;;;27.50;25.00;;;;;3.10;69.17;100330.34;5044270;28;45507;-86
2022/12/09 06:40:21;;;;;;;;;26.75;21.75;;;;;3.03;69.64;100328.50;5051470;28;45375;-86
2022/12/09 06:42:49;;;;;;;;;27.50;21.75;;;;;3.08;69.60;100339.88;5048429;28;45376;-87
2022/12/09 06:45:16;;;;;;;;;32.50;28.25;;;;;3.06;69.44;100346.75;5021617;28;46142;-87
2022/12/09 06:47:42;;;;;;;;;35.00;28.50;;;;;2.97;69.39;100320.59;5022714;28;48342;-88
2022/12/09 06:50:08;;;;;;;;;33.00;26.75;;;;;3.05;69.39;100342.41;5054654;28;45458;-90
2022/12/09 06:52:36;;;;;;;;;33.50;27.25;;;;;2.87;68.87;100320.38;5011789;28;45680;-90
2022/12/09 06:55:02;;;;;;;;;29.00;22.00;;;;;2.95;69.06;100335.25;5036624;28;45453;-91
2022/12/09 06:57:27;;;;;;;;;27.75;21.50;;;;;2.81;69.38;100301.19;5038010;28;45545;-88
2022/12/09 06:59:53;;;;;;;;;26.50;23.00;;;;;2.87;68.88;100315.19;5046732;28;45351;-89
2022/12/09 07:02:18;;;;;;;;;25.75;19.50;;;;;2.99;69.33;100337.06;5033062;28;45363;-89
2022/12/09 07:04:44;;;;;;;;;25.25;18.50;;;;;2.94;68.94;100328.28;5024120;28;45509;-91
2022/12/09 07:07:10;;;;;;;;;33.00;29.75;;;;;2.98;69.06;100332.72;5035924;28;46709;-89
2022/12/09 07:09:35;;;;;;;;;29.75;26.75;;;;;2.92;69.14;100327.41;5025992;28;45720;-90
2022/12/09 07:12:01;;;;;;;;;26.00;23.50;;;;;2.91;69.10;100323.91;5052965;28;45363;-90
2022/12/09 07:14:26;;;;;;;;;26.50;24.50;;;;;2.82;68.98;100313.34;5037483;28;45296;-90
2022/12/09 07:16:51;;;;;;;;;41.25;33.75;;;;;2.99;69.17;100339.66;5036697;28;47429;-89
2022/12/09 07:19:19;;;;;;;;;31.75;27.25;;;;;2.90;69.30;100322.16;5025501;28;45253;-90
2022/12/09 07:21:45;;;;;;;;;25.75;21.75;;;;;2.90;68.88;100331.69;5039502;28;45288;-90
2022/12/09 07:24:14;;;;;;;;;27.50;24.25;;;;;2.95;69.33;100343.94;5009881;28;45259;-91
2022/12/09 07:26:39;;;;;;;;;33.25;28.25;;;;;2.96;69.31;100342.22;5022906;28;47291;-87
2022/12/09 07:29:06;;;;;;;;;34.75;27.25;;;;;2.96;69.60;100352.59;5048207;28;45505;-88
2022/12/09 07:31:32;;;;;;;;;36.25;29.75;;;;;2.87;69.26;100332.50;5036822;28;45272;-87
2022/12/09 07:33:58;;;;;;;;;34.75;29.50;;;;;2.91;68.70;100333.44;5052050;28;45220;-86
2022/12/09 07:36:25;;;;;;;;;32.00;25.50;;;;;2.88;68.64;100329.03;5019851;28;47233;-86
2022/12/09 07:39:05;;;;;;;;;35.00;26.25;;;;;3.03;69.18;100355.38;5027976;28;45440;-86
2022/12/09 07:41:31;;;;;;;;;37.75;33.50;;;;;2.98;69.03;100354.41;5055704;28;45226;-86
2022/12/09 07:43:56;;;;;;;;;47.00;38.50;;;;;3.02;68.87;100368.31;5038092;28;46127;-88
2022/12/09 07:46:24;;;;;;;;;42.50;31.75;;;;;3.04;68.91;100369.25;5058073;28;45217;-91
2022/12/09 07:48:49;;;;;;;;;34.00;30.75;;;;;3.00;69.24;100363.13;5064597;28;45371;-90
2022/12/09 07:51:16;;;;;;;;;38.25;33.00;;;;;2.96;68.86;100356.06;5042667;28;45280;-90
2022/12/09 07:53:41;;;;;;;;;41.50;32.50;;;;;3.05;68.86;100361.50;5026419;28;45355;-89
2022/12/09 07:56:10;;;;;;;;;40.00;32.50;;;;;2.96;69.19;100345.69;5044926;28;47334;-89
2022/12/09 07:58:37;;;;;;;;;30.25;25.75;;;;;3.02;69.26;100355.31;5055843;28;45257;-89
2022/12/09 08:01:07;;;;;;;;;27.50;22.25;;;;;3.09;68.87;100373.69;5043017;28;45272;-90
2022/12/09 08:03:33;;;;;;;;;34.75;25.25;;;;;3.12;68.31;100382.41;5029829;28;45869;-88
2022/12/09 08:05:58;;;;;;;;;32.00;27.50;;;;;3.12;68.89;100377.22;5045646;28;47268;-90
2022/12/09 08:08:24;;;;;;;;;34.00;28.25;;;;;3.12;68.62;100372.88;5049745;28;44873;-89
2022/12/09 08:10:49;;;;;;;;;30.75;26.50;;;;;3.06;68.78;100363.22;5049498;28;45776;-89
2022/12/09 08:13:15;;;;;;;;;24.50;22.25;;;;;3.21;68.85;100380.00;5047900;28;45256;-89
2022/12/09 08:15:40;;;;;;;;;31.50;26.50;;;;;3.23;68.81;100381.75;5036421;28;47001;-88
2022/12/09 08:18:06;;;;;;;;;36.75;30.25;;;;;3.26;68.70;100383.56;5037575;28;45226;-89
2022/12/09 08:20:33;;;;;;;;;27.25;26.00;;;;;3.21;68.75;100362.66;5026108;28;45332;-91
2022/12/09 08:22:58;;;;;;;;;32.50;29.00;;;;;3.15;68.53;100353.84;5035082;28;46133;-89
2022/12/09 08:25:24;;;;;;;;;30.25;26.50;;;;;3.35;68.31;100375.94;5028101;28;47283;-88
2022/12/09 08:27:49;;;;;;;;;27.25;25.50;;;;;3.20;68.25;100349.63;5025209;28;45441;-89
2022/12/09 08:30:15;;;;;;;;;34.50;29.25;;;;;3.41;68.67;100386.47;5015079;28;45445;-89
2022/12/09 08:32:41;;;;;;;;;32.75;27.00;;;;;3.29;68.71;100350.69;5037212;28;45961;-90
2022/12/09 08:35:13;;;;;;;;;29.25;20.00;;;;;3.31;68.77;100348.09;5040347;28;47127;-89
2022/12/09 08:37:42;;;;;;;;;30.75;30.25;;;;;3.44;68.21;100370.91;5037110;28;46026;-90
2022/12/09 08:40:08;;;;;;;;;35.75;31.75;;;;;3.40;68.48;100361.31;5027348;28;45680;-90
2022/12/09 08:42:33;;;;;;;;;35.00;33.75;;;;;3.40;68.11;100368.25;5036656;28;45363;-89
2022/12/09 08:44:59;;;;;;;;;31.25;28.00;;;;;3.39;68.48;100369.06;5037815;28;46995;-89
2022/12/09 08:47:26;;;;;;;;;37.75;27.75;;;;;3.40;68.23;100363.03;5032938;28;45916;-90
2022/12/09 08:49:51;;;;;;;;;36.00;30.50;;;;;3.51;68.06;100379.72;5024744;28;45229;-89
2022/12/09 08:52:17;;;;;;;;;32.00;29.00;;;;;3.56;68.30;100379.81;5025928;28;45226;-89
2022/12/09 08:54:42;;;;;;;;;32.00;27.00;;;;;3.59;68.11;100390.28;5031808;28;47087;-90
2022/12/09 08:57:07;;;;;;;;;40.25;33.75;;;;;3.49;68.29;100365.78;5033722;28;45627;-89
2022/12/09 08:59:33;;;;;;;;;36.50;33.00;;;;;3.62;67.96;100396.41;5023712;28;45691;-89
2022/12/09 09:01:58;;;;;;;;;45.00;38.25;;;;;3.47;67.91;100364.88;5013053;28;45164;-89
2022/12/09 09:04:24;;;;;;;;;40.25;33.25;;;;;3.62;67.90;100386.00;5026353;28;47175;-90
2022/12/09 09:06:50;;;;;;;;;33.50;31.00;;;;;3.54;67.62;100378.03;5035658;28;45457;-90
2022/12/09 09:09:15;;;;;;;;;33.50;29.00;;;;;3.65;67.72;100400.78;5027684;28;45372;-90
2022/12/09 09:11:43;;;;;;;;;29.00;23.50;;;;;3.47;67.50;100367.50;5016065;28;45724;-86
2022/12/09 09:14:10;;;;;;;;;37.00;31.75;;;;;3.63;68.10;100392.06;5025080;28;48183;-88
2022/12/09 09:16:38;;;;;;;;;33.50;32.00;;;;;3.57;68.08;100379.81;5034083;28;45230;-87
2022/12/09 09:19:04;;;;;;;;;30.75;27.25;;;;;3.52;67.50;100371.06;5024874;28;45415;-87
2022/12/09 09:21:30;;;;;;;;;34.50;30.75;;;;;3.61;67.78;100381.66;5023722;28;45491;-87
2022/12/09 09:23:56;;;;;;;;;43.75;39.75;;;;;3.62;67.64;100378.19;5026532;28;47229;-88
2022/12/09 09:26:26;;;;;;;;;24.75;22.50;;;;;3.64;68.14;100383.44;5036349;28;45424;-85
2022/12/09 09:28:53;;;;;;;;;34.25;28.50;;;;;3.64;68.10;100370.44;5063526;28;45305;-90
2022/12/09 09:31:20;;;;;;;;;39.00;33.75;;;;;3.71;67.73;100373.13;5032161;28;45260;-89
2022/12/09 09:33:46;;;;;;;;;38.25;31.25;;;;;3.76;67.78;100373.22;5015980;28;47115;-88
2022/12/09 09:36:19;;;;;;;;;36.50;30.50;;;;;3.88;67.38;100396.03;5031123;28;45350;-89
2022/12/09 09:38:45;;;;;;;;;33.50;29.50;;;;;3.88;67.46;100393.41;5030210;28;45579;-85
2022/12/09 09:41:46;;;;;;;;;36.25;32.25;;;;;3.87;67.09;100381.22;5029337;28;45913;-85
2022/12/09 09:44:41;;;;;;;;;41.00;32.50;;;;;3.89;67.36;100382.13;5040989;28;45621;-84
2022/12/09 09:47:56;;;;;;;;;42.75;35.00;;;;;3.94;66.92;100391.78;5030437;28;45241;-88
2022/12/09 09:50:34;;;;;;;;;37.50;30.00;;;;;3.88;66.60;100383.00;5018752;28;45250;-86
2022/12/09 09:53:14;;;;;;;;;36.00;31.00;;;;;3.93;66.69;100395.25;5044932;28;45300;-86
2022/12/09 09:55:48;;;;;;;;;44.00;38.25;;;;;3.93;66.61;100384.84;5029080;28;47070;-87
2022/12/09 09:58:21;;;;;;;;;32.50;31.25;;;;;4.04;66.17;100400.63;5040827;28;45343;-84
2022/12/09 10:00:46;;;;;;;;;33.50;30.00;;;;;4.09;66.93;100395.47;5053715;28;45288;-86
2022/12/09 10:03:42;;;;;;;;;21.50;21.50;;;;;4.10;66.28;100400.72;5017109;28;45605;-84
2022/12/09 10:06:29;;;;;;;;;33.00;29.50;;;;;4.13;66.27;100398.19;5019898;28;46756;-82
2022/12/09 10:09:18;;;;;;;;;32.25;28.00;;;;;4.13;66.48;100377.34;5038654;28;45586;-83
2022/12/09 10:11:53;;;;;;;;;36.00;33.75;;;;;4.31;66.41;100381.09;5018093;28;45303;-85
2022/12/09 10:14:51;;;;;;;;;39.00;34.00;;;;;4.40;66.32;100360.38;5043567;28;45370;-86
2022/12/09 10:17:28;;;;;;;;;45.75;36.50;;;;;4.84;66.35;100368.84;5047932;28;45488;-85
2022/12/09 10:20:03;;;;;;;;;37.00;32.50;;;;;5.09;66.08;100370.03;5020400;28;45507;-84
2022/12/09 10:22:41;;;;;;;;;39.50;34.25;;;;;5.23;65.87;100367.59;5024090;28;45433;-86
2022/12/09 10:25:23;;;;;;;;;44.25;34.50;;;;;5.30;65.11;100368.53;5044206;28;45657;-86
2022/12/09 10:27:55;;;;;;;;;40.25;35.25;;;;;5.33;64.98;100365.09;5040170;28;45669;-85
2022/12/09 10:30:21;;;;;;;;;36.75;31.00;;;;;5.17;64.65;100345.78;5034918;28;45457;-86
2022/12/09 10:32:47;;;;;;;;;37.50;32.75;;;;;5.28;64.84;100370.25;5019541;28;45769;-86
2022/12/09 10:35:12;;;;;;;;;38.00;32.50;;;;;5.23;64.82;100361.50;5024801;28;45630;-87
2022/12/09 10:37:40;;;;;;;;;42.50;35.75;;;;;5.02;64.57;100338.63;5028734;28;46219;-89
2022/12/09 10:40:09;;;;;;;;;35.75;32.75;;;;;5.12;64.70;100356.16;5019111;28;45327;-93
2022/12/09 10:45:25;;;;;;;;;47.00;36.75;;;;;5.04;64.83;100334.31;5016253;28;45316;-92
2022/12/09 10:47:51;;;;;;;;;43.25;34.25;;;;;5.14;64.91;100348.34;5033874;28;47722;-91
2022/12/09 10:50:32;;;;;;;;;45.50;35.75;;;;;4.99;64.63;100322.94;5028652;28;45237;-91
2022/12/09 10:53:06;;;;;;;;;44.00;35.25;;;;;5.14;64.47;100343.13;5032800;28;45381;-92
2022/12/09 10:55:36;;;;;;;;;39.00;33.25;;;;;5.08;64.11;100349.16;5035530;28;45540;-85
2022/12/09 10:58:09;;;;;;;;;42.50;38.50;;;;;4.89;64.30;100315.84;5024832;28;45558;-82
2022/12/09 11:00:35;;;;;;;;;35.75;31.75;;;;;4.88;64.39;100334.97;5031196;28;45376;-82
2022/12/09 11:03:01;;;;;;;;;34.50;28.75;;;;;4.79;64.35;100330.53;5029963;28;45383;-88
2022/12/09 11:05:39;;;;;;;;;26.75;21.00;;;;;4.60;64.38;100316.38;5033146;28;45504;-89
2022/12/09 11:08:05;;;;;;;;;44.75;36.50;;;;;4.76;64.11;100343.53;5012691;28;45595;-86
2022/12/09 11:10:47;;;;;;;;;37.00;30.50;;;;;4.72;64.69;100320.88;5023420;28;45599;-86
2022/12/09 11:13:15;;;;;;;;;42.50;35.00;;;;;4.94;64.82;100306.34;5017280;28;45455;-86
2022/12/09 11:15:52;;;;;;;;;41.25;34.75;;;;;5.14;64.25;100302.25;5035603;28;45783;-85
2022/12/09 11:18:26;;;;;;;;;46.00;38.75;;;;;5.50;64.35;100322.63;5032949;28;46335;-85
2022/12/09 11:20:57;;;;;;;;;49.25;40.75;;;;;5.97;64.64;100330.06;5031132;28;45833;-87
2022/12/09 11:23:22;;;;;;;;;37.00;29.50;;;;;7.01;64.72;100303.66;5023561;28;46489;-87
2022/12/09 11:26:01;;;;;;;;;44.50;38.00;;;;;7.42;62.42;100288.94;5029738;28;45175;-86
2022/12/09 11:28:30;;;;;;;;;43.25;36.00;;;;;7.63;61.42;100316.91;5027034;28;48089;-87